Bodrum, Turkey

2:46 PM EET on February 06, 2016 (GMT +0200)
Culture Vulture's House | | Change Station
CLOSE
Current Station
Personal Weather Station
Location: Gumusluk, Mugla
Elevation: 52 ft
Nearby Weather Stations

Elev 52 ft 37.05 °N, 27.25 °E | Updated 18 seconds ago

Mostly Cloudy
Mostly Cloudy
48.0 °F
Feels Like 41 °F
N
22.1
Wind Variable Wind from NW
Gusts 29.8 mph

Today
High -- | Low -- °F
--% Chance of Precip.
Yesterday
High -- | Low -- °F
Precip. -- in
Pressure 30.04 in
Visibility 6.2 miles
Clouds Scattered Clouds 3000 ft
Mostly Cloudy 10000 ft
Windchill 41 °F
Dew Point 30 °F
Humidity 49%
Rainfall 0.02 in
Snow Depth Not available.
7:09 AM 5:39 PM
Waning Crescent, 6% visible
METAR LTFE 061220Z 35018KT 320V020 9999 SCT030 BKN100 09/M00 Q1017 NOSIG
Pressure 30.04 in
Visibility 6.2 miles
Clouds Scattered Clouds 3000 ft
Mostly Cloudy 10000 ft
Windchill 41 °F
Dew Point 30 °F
Humidity 49%
Rainfall 0.02 in
Snow Depth Not available.
7:09 AM 5:39 PM
Waning Crescent, 6% visible
METAR LTFE 061220Z 35018KT 320V020 9999 SCT030 BKN100 09/M00 Q1017 NOSIG

10-Day Weather Forecast

Almanac

Astronomy

Feb. 06, 2016 Rise Set
Actual Time
Civil Twilight
Nautical Twilight
Astronomical Twilight
Moon
Length of Visible Light
Length of Day
Tomorrow will be .
, % of the Moon is Illuminated

Today's Extremes

Country Highs Country Lows

Community

WunderPhotos

Upload Photos

1,890,954 photos uploaded!

WunderBlog® & News

Nearby

Air Quality

  Air Quality AQ Index Pollutant
Not available.

Snow Depth

Station Depth Elevation

Earthquake Activity

City Distance Mag. Time & Date
Minimum magnitude displayed is 2.5.

Coastal Water Temperatures

Place Temperature

Stations

Nearby Weather Stations

Station Location Temp. Windchill Dew Point Humidity Wind Precip. Elev Updated Type